sensor_id;sensor_type;location;lat;lon;timestamp;P1;durP1;ratioP1;P2;durP2;ratioP2
47635;SDS011;33364;50.766;15.338;2022-07-12T00:01:17;2.20;;;1.20;;
47635;SDS011;33364;50.766;15.338;2022-07-12T00:03:43;2.35;;;1.42;;
47635;SDS011;33364;50.766;15.338;2022-07-12T00:06:08;3.22;;;1.63;;
47635;SDS011;33364;50.766;15.338;2022-07-12T00:08:34;4.93;;;2.65;;
47635;SDS011;33364;50.766;15.338;2022-07-12T00:10:59;3.90;;;2.00;;
47635;SDS011;33364;50.766;15.338;2022-07-12T00:13:25;9.00;;;2.92;;
47635;SDS011;33364;50.766;15.338;2022-07-12T00:15:50;7.03;;;2.20;;
47635;SDS011;33364;50.766;15.338;2022-07-12T00:18:16;6.30;;;2.13;;
47635;SDS011;33364;50.766;15.338;2022-07-12T00:20:41;5.03;;;1.33;;
47635;SDS011;33364;50.766;15.338;2022-07-12T00:23:07;1.75;;;1.10;;
47635;SDS011;33364;50.766;15.338;2022-07-12T00:25:32;1.35;;;1.02;;
47635;SDS011;33364;50.766;15.338;2022-07-12T00:27:58;4.82;;;1.55;;
47635;SDS011;33364;50.766;15.338;2022-07-12T00:30:24;3.53;;;1.30;;
47635;SDS011;33364;50.766;15.338;2022-07-12T00:32:49;3.67;;;1.63;;
47635;SDS011;33364;50.766;15.338;2022-07-12T00:35:15;5.15;;;1.83;;
47635;SDS011;33364;50.766;15.338;2022-07-12T00:37:41;4.15;;;1.88;;
47635;SDS011;33364;50.766;15.338;2022-07-12T00:40:07;4.50;;;1.60;;
47635;SDS011;33364;50.766;15.338;2022-07-12T00:42:35;3.25;;;1.10;;
47635;SDS011;33364;50.766;15.338;2022-07-12T00:45:02;3.67;;;1.77;;
47635;SDS011;33364;50.766;15.338;2022-07-12T00:47:32;3.40;;;1.20;;
47635;SDS011;33364;50.766;15.338;2022-07-12T00:50:03;5.72;;;1.40;;
47635;SDS011;33364;50.766;15.338;2022-07-12T00:52:31;3.42;;;1.20;;
47635;SDS011;33364;50.766;15.338;2022-07-12T00:54:56;4.53;;;1.48;;
47635;SDS011;33364;50.766;15.338;2022-07-12T00:57:22;6.65;;;2.38;;
47635;SDS011;33364;50.766;15.338;2022-07-12T00:59:48;4.85;;;2.47;;
47635;SDS011;33364;50.766;15.338;2022-07-12T01:02:14;4.18;;;2.13;;
47635;SDS011;33364;50.766;15.338;2022-07-12T01:04:40;4.43;;;1.50;;
47635;SDS011;33364;50.766;15.338;2022-07-12T01:07:06;4.63;;;1.80;;
47635;SDS011;33364;50.766;15.338;2022-07-12T01:09:32;3.58;;;1.60;;
47635;SDS011;33364;50.766;15.338;2022-07-12T01:11:58;5.70;;;1.73;;
47635;SDS011;33364;50.766;15.338;2022-07-12T01:14:23;2.47;;;1.35;;
47635;SDS011;33364;50.766;15.338;2022-07-12T01:16:50;3.85;;;1.13;;
47635;SDS011;33364;50.766;15.338;2022-07-12T01:19:19;3.78;;;1.52;;
47635;SDS011;33364;50.766;15.338;2022-07-12T01:21:46;4.15;;;1.80;;
47635;SDS011;33364;50.766;15.338;2022-07-12T01:24:14;2.85;;;1.88;;
47635;SDS011;33364;50.766;15.338;2022-07-12T01:26:40;4.57;;;1.08;;
47635;SDS011;33364;50.766;15.338;2022-07-12T01:29:06;2.15;;;0.85;;
47635;SDS011;33364;50.766;15.338;2022-07-12T01:31:34;3.70;;;1.30;;
47635;SDS011;33364;50.766;15.338;2022-07-12T01:34:01;3.50;;;1.20;;
47635;SDS011;33364;50.766;15.338;2022-07-12T01:36:27;4.53;;;1.42;;
47635;SDS011;33364;50.766;15.338;2022-07-12T01:38:53;1.80;;;1.17;;
47635;SDS011;33364;50.766;15.338;2022-07-12T01:41:19;3.30;;;1.23;;
47635;SDS011;33364;50.766;15.338;2022-07-12T01:43:44;2.20;;;1.13;;
47635;SDS011;33364;50.766;15.338;2022-07-12T01:46:10;4.05;;;1.75;;
47635;SDS011;33364;50.766;15.338;2022-07-12T01:48:36;3.15;;;1.65;;
47635;SDS011;33364;50.766;15.338;2022-07-12T01:51:01;6.93;;;1.77;;
47635;SDS011;33364;50.766;15.338;2022-07-12T01:53:27;3.83;;;1.40;;
47635;SDS011;33364;50.766;15.338;2022-07-12T01:55:52;3.83;;;1.58;;
47635;SDS011;33364;50.766;15.338;2022-07-12T01:58:18;2.20;;;1.10;;
47635;SDS011;33364;50.766;15.338;2022-07-12T02:00:44;2.80;;;0.93;;
47635;SDS011;33364;50.766;15.338;2022-07-12T02:03:17;1.48;;;1.10;;
47635;SDS011;33364;50.766;15.338;2022-07-12T02:05:43;2.65;;;1.38;;
47635;SDS011;33364;50.766;15.338;2022-07-12T02:08:09;6.07;;;1.00;;
47635;SDS011;33364;50.766;15.338;2022-07-12T02:10:34;4.97;;;1.27;;
47635;SDS011;33364;50.766;15.338;2022-07-12T02:13:03;2.97;;;1.00;;
47635;SDS011;33364;50.766;15.338;2022-07-12T02:15:29;3.03;;;0.73;;
47635;SDS011;33364;50.766;15.338;2022-07-12T02:17:55;2.72;;;1.00;;
47635;SDS011;33364;50.766;15.338;2022-07-12T02:20:20;2.88;;;0.90;;
47635;SDS011;33364;50.766;15.338;2022-07-12T02:22:46;1.10;;;0.75;;
47635;SDS011;33364;50.766;15.338;2022-07-12T02:25:11;2.13;;;1.40;;
47635;SDS011;33364;50.766;15.338;2022-07-12T02:27:40;3.60;;;1.00;;
47635;SDS011;33364;50.766;15.338;2022-07-12T02:30:07;2.95;;;0.80;;
47635;SDS011;33364;50.766;15.338;2022-07-12T02:32:34;1.23;;;0.70;;
47635;SDS011;33364;50.766;15.338;2022-07-12T02:35:00;2.65;;;1.67;;
47635;SDS011;33364;50.766;15.338;2022-07-12T02:37:26;2.45;;;1.38;;
47635;SDS011;33364;50.766;15.338;2022-07-12T02:39:52;2.47;;;1.45;;
47635;SDS011;33364;50.766;15.338;2022-07-12T02:42:37;3.53;;;1.55;;
47635;SDS011;33364;50.766;15.338;2022-07-12T02:45:03;3.53;;;1.10;;
47635;SDS011;33364;50.766;15.338;2022-07-12T02:47:28;1.30;;;0.75;;
47635;SDS011;33364;50.766;15.338;2022-07-12T02:49:54;1.42;;;0.90;;
47635;SDS011;33364;50.766;15.338;2022-07-12T02:52:20;2.40;;;1.30;;
47635;SDS011;33364;50.766;15.338;2022-07-12T02:54:45;2.83;;;1.73;;
47635;SDS011;33364;50.766;15.338;2022-07-12T02:57:10;2.30;;;0.90;;
47635;SDS011;33364;50.766;15.338;2022-07-12T02:59:36;4.03;;;1.10;;
47635;SDS011;33364;50.766;15.338;2022-07-12T03:02:02;1.45;;;0.90;;
47635;SDS011;33364;50.766;15.338;2022-07-12T03:04:28;2.05;;;0.63;;
47635;SDS011;33364;50.766;15.338;2022-07-12T03:06:53;1.88;;;0.90;;
47635;SDS011;33364;50.766;15.338;2022-07-12T03:09:19;2.35;;;0.70;;
47635;SDS011;33364;50.766;15.338;2022-07-12T03:11:44;3.45;;;1.17;;
47635;SDS011;33364;50.766;15.338;2022-07-12T03:14:10;2.33;;;1.50;;
47635;SDS011;33364;50.766;15.338;2022-07-12T03:16:36;1.40;;;0.85;;
47635;SDS011;33364;50.766;15.338;2022-07-12T03:19:02;1.95;;;1.40;;
47635;SDS011;33364;50.766;15.338;2022-07-12T03:21:28;1.33;;;0.68;;
47635;SDS011;33364;50.766;15.338;2022-07-12T03:23:53;2.10;;;0.90;;
47635;SDS011;33364;50.766;15.338;2022-07-12T03:26:18;4.88;;;1.20;;
47635;SDS011;33364;50.766;15.338;2022-07-12T03:28:45;3.78;;;1.30;;
47635;SDS011;33364;50.766;15.338;2022-07-12T03:31:11;2.25;;;1.10;;
47635;SDS011;33364;50.766;15.338;2022-07-12T03:33:36;3.45;;;1.40;;
47635;SDS011;33364;50.766;15.338;2022-07-12T03:36:02;2.63;;;1.63;;
47635;SDS011;33364;50.766;15.338;2022-07-12T03:38:27;1.70;;;1.08;;
47635;SDS011;33364;50.766;15.338;2022-07-12T03:40:53;3.03;;;1.00;;
47635;SDS011;33364;50.766;15.338;2022-07-12T03:43:19;3.55;;;1.00;;
47635;SDS011;33364;50.766;15.338;2022-07-12T03:45:44;1.40;;;0.80;;
47635;SDS011;33364;50.766;15.338;2022-07-12T03:48:10;3.08;;;1.30;;
47635;SDS011;33364;50.766;15.338;2022-07-12T03:50:36;3.03;;;0.80;;
47635;SDS011;33364;50.766;15.338;2022-07-12T03:53:02;7.95;;;1.13;;
47635;SDS011;33364;50.766;15.338;2022-07-12T03:55:27;1.60;;;0.90;;
47635;SDS011;33364;50.766;15.338;2022-07-12T03:57:53;0.82;;;0.70;;
47635;SDS011;33364;50.766;15.338;2022-07-12T04:00:18;1.83;;;0.90;;
47635;SDS011;33364;50.766;15.338;2022-07-12T04:02:44;1.80;;;0.77;;
47635;SDS011;33364;50.766;15.338;2022-07-12T04:05:10;2.25;;;0.65;;
47635;SDS011;33364;50.766;15.338;2022-07-12T04:07:36;2.08;;;0.90;;
47635;SDS011;33364;50.766;15.338;2022-07-12T04:10:03;1.33;;;1.02;;
47635;SDS011;33364;50.766;15.338;2022-07-12T04:12:29;6.07;;;1.00;;
47635;SDS011;33364;50.766;15.338;2022-07-12T04:14:55;2.55;;;0.93;;
47635;SDS011;33364;50.766;15.338;2022-07-12T04:17:21;2.60;;;1.80;;
47635;SDS011;33364;50.766;15.338;2022-07-12T04:19:46;3.60;;;0.95;;
47635;SDS011;33364;50.766;15.338;2022-07-12T04:22:12;1.40;;;1.00;;
47635;SDS011;33364;50.766;15.338;2022-07-12T04:24:37;1.70;;;1.42;;
47635;SDS011;33364;50.766;15.338;2022-07-12T04:27:03;2.88;;;1.92;;
47635;SDS011;33364;50.766;15.338;2022-07-12T04:29:29;2.00;;;1.60;;
47635;SDS011;33364;50.766;15.338;2022-07-12T04:31:54;4.88;;;2.30;;
47635;SDS011;33364;50.766;15.338;2022-07-12T04:34:20;6.35;;;3.47;;
47635;SDS011;33364;50.766;15.338;2022-07-12T04:36:46;4.25;;;3.42;;
47635;SDS011;33364;50.766;15.338;2022-07-12T04:39:12;5.68;;;4.18;;
47635;SDS011;33364;50.766;15.338;2022-07-12T04:41:38;6.22;;;3.70;;
47635;SDS011;33364;50.766;15.338;2022-07-12T04:44:07;7.28;;;3.65;;
47635;SDS011;33364;50.766;15.338;2022-07-12T04:46:33;5.55;;;3.25;;
47635;SDS011;33364;50.766;15.338;2022-07-12T04:48:59;3.15;;;2.58;;
47635;SDS011;33364;50.766;15.338;2022-07-12T04:51:25;3.85;;;2.40;;
47635;SDS011;33364;50.766;15.338;2022-07-12T04:53:50;5.18;;;2.28;;
47635;SDS011;33364;50.766;15.338;2022-07-12T04:56:16;5.95;;;2.50;;
47635;SDS011;33364;50.766;15.338;2022-07-12T04:58:42;6.57;;;3.20;;
47635;SDS011;33364;50.766;15.338;2022-07-12T05:01:07;6.72;;;3.25;;
47635;SDS011;33364;50.766;15.338;2022-07-12T05:03:34;4.97;;;3.55;;
47635;SDS011;33364;50.766;15.338;2022-07-12T05:06:00;8.27;;;5.68;;
47635;SDS011;33364;50.766;15.338;2022-07-12T05:08:25;3.42;;;2.67;;
47635;SDS011;33364;50.766;15.338;2022-07-12T05:10:51;1.90;;;1.10;;
47635;SDS011;33364;50.766;15.338;2022-07-12T05:13:16;2.47;;;1.17;;
47635;SDS011;33364;50.766;15.338;2022-07-12T05:15:42;3.97;;;0.70;;
47635;SDS011;33364;50.766;15.338;2022-07-12T05:18:07;1.65;;;0.75;;
47635;SDS011;33364;50.766;15.338;2022-07-12T05:20:33;1.73;;;0.77;;
47635;SDS011;33364;50.766;15.338;2022-07-12T05:22:58;3.20;;;1.77;;
47635;SDS011;33364;50.766;15.338;2022-07-12T05:25:24;2.40;;;1.42;;
47635;SDS011;33364;50.766;15.338;2022-07-12T05:27:50;5.03;;;2.47;;
47635;SDS011;33364;50.766;15.338;2022-07-12T05:30:16;7.63;;;3.83;;
47635;SDS011;33364;50.766;15.338;2022-07-12T05:32:41;3.17;;;1.58;;
47635;SDS011;33364;50.766;15.338;2022-07-12T05:35:07;1.85;;;0.98;;
47635;SDS011;33364;50.766;15.338;2022-07-12T05:37:33;2.05;;;0.75;;
47635;SDS011;33364;50.766;15.338;2022-07-12T05:39:58;1.25;;;0.93;;
47635;SDS011;33364;50.766;15.338;2022-07-12T05:42:24;1.23;;;1.00;;
47635;SDS011;33364;50.766;15.338;2022-07-12T05:44:49;2.63;;;0.82;;
47635;SDS011;33364;50.766;15.338;2022-07-12T05:47:15;2.03;;;0.60;;
47635;SDS011;33364;50.766;15.338;2022-07-12T05:49:40;2.55;;;0.70;;
47635;SDS011;33364;50.766;15.338;2022-07-12T05:52:06;3.30;;;0.68;;
47635;SDS011;33364;50.766;15.338;2022-07-12T05:54:50;1.90;;;0.60;;
47635;SDS011;33364;50.766;15.338;2022-07-12T05:57:16;0.55;;;0.40;;
47635;SDS011;33364;50.766;15.338;2022-07-12T05:59:41;3.05;;;0.70;;
47635;SDS011;33364;50.766;15.338;2022-07-12T06:02:08;2.75;;;0.75;;
47635;SDS011;33364;50.766;15.338;2022-07-12T06:04:33;1.27;;;0.80;;
47635;SDS011;33364;50.766;15.338;2022-07-12T06:06:59;1.33;;;0.60;;
47635;SDS011;33364;50.766;15.338;2022-07-12T06:09:25;2.60;;;0.65;;
47635;SDS011;33364;50.766;15.338;2022-07-12T06:11:50;3.75;;;0.60;;
47635;SDS011;33364;50.766;15.338;2022-07-12T06:14:16;2.20;;;0.90;;
47635;SDS011;33364;50.766;15.338;2022-07-12T06:16:41;3.40;;;0.65;;
47635;SDS011;33364;50.766;15.338;2022-07-12T06:19:07;1.58;;;0.50;;
47635;SDS011;33364;50.766;15.338;2022-07-12T06:21:32;2.80;;;0.60;;
47635;SDS011;33364;50.766;15.338;2022-07-12T06:23:58;1.08;;;0.50;;
47635;SDS011;33364;50.766;15.338;2022-07-12T06:26:24;1.92;;;0.40;;
47635;SDS011;33364;50.766;15.338;2022-07-12T06:28:49;0.85;;;0.38;;
47635;SDS011;33364;50.766;15.338;2022-07-12T06:31:15;1.42;;;0.55;;
47635;SDS011;33364;50.766;15.338;2022-07-12T06:33:41;1.27;;;0.52;;
47635;SDS011;33364;50.766;15.338;2022-07-12T06:36:06;0.60;;;0.40;;
47635;SDS011;33364;50.766;15.338;2022-07-12T06:38:32;0.52;;;0.40;;
47635;SDS011;33364;50.766;15.338;2022-07-12T06:40:57;1.20;;;0.50;;
47635;SDS011;33364;50.766;15.338;2022-07-12T06:43:23;0.77;;;0.50;;
47635;SDS011;33364;50.766;15.338;2022-07-12T06:45:48;3.90;;;0.60;;
47635;SDS011;33364;50.766;15.338;2022-07-12T06:48:14;0.90;;;0.73;;
47635;SDS011;33364;50.766;15.338;2022-07-12T06:50:39;1.25;;;0.35;;
47635;SDS011;33364;50.766;15.338;2022-07-12T06:53:05;1.23;;;0.60;;
47635;SDS011;33364;50.766;15.338;2022-07-12T06:55:30;2.22;;;0.50;;
47635;SDS011;33364;50.766;15.338;2022-07-12T06:57:56;0.60;;;0.40;;
47635;SDS011;33364;50.766;15.338;2022-07-12T07:00:22;1.77;;;0.45;;
47635;SDS011;33364;50.766;15.338;2022-07-12T07:02:47;1.50;;;0.57;;
47635;SDS011;33364;50.766;15.338;2022-07-12T07:05:13;1.60;;;0.70;;
47635;SDS011;33364;50.766;15.338;2022-07-12T07:07:41;4.03;;;0.95;;
47635;SDS011;33364;50.766;15.338;2022-07-12T07:10:06;1.00;;;0.80;;
47635;SDS011;33364;50.766;15.338;2022-07-12T07:12:32;1.35;;;0.82;;
47635;SDS011;33364;50.766;15.338;2022-07-12T07:14:58;1.95;;;0.80;;
47635;SDS011;33364;50.766;15.338;2022-07-12T07:17:23;2.42;;;0.80;;
47635;SDS011;33364;50.766;15.338;2022-07-12T07:19:49;1.17;;;0.70;;
47635;SDS011;33364;50.766;15.338;2022-07-12T07:22:14;4.80;;;1.00;;
47635;SDS011;33364;50.766;15.338;2022-07-12T07:24:40;2.40;;;0.68;;
47635;SDS011;33364;50.766;15.338;2022-07-12T07:27:06;5.05;;;1.50;;
47635;SDS011;33364;50.766;15.338;2022-07-12T07:29:32;4.35;;;1.10;;
47635;SDS011;33364;50.766;15.338;2022-07-12T07:32:16;2.42;;;1.13;;
47635;SDS011;33364;50.766;15.338;2022-07-12T07:34:41;3.40;;;1.17;;
47635;SDS011;33364;50.766;15.338;2022-07-12T07:37:07;2.30;;;0.60;;
47635;SDS011;33364;50.766;15.338;2022-07-12T07:39:33;1.50;;;0.60;;
47635;SDS011;33364;50.766;15.338;2022-07-12T07:41:59;2.13;;;0.73;;
47635;SDS011;33364;50.766;15.338;2022-07-12T07:44:24;2.53;;;0.70;;
47635;SDS011;33364;50.766;15.338;2022-07-12T07:46:50;4.47;;;0.70;;
47635;SDS011;33364;50.766;15.338;2022-07-12T07:49:16;2.35;;;0.70;;
47635;SDS011;33364;50.766;15.338;2022-07-12T07:51:41;2.35;;;0.70;;
47635;SDS011;33364;50.766;15.338;2022-07-12T07:54:07;3.70;;;1.63;;
47635;SDS011;33364;50.766;15.338;2022-07-12T07:56:32;3.05;;;1.20;;
47635;SDS011;33364;50.766;15.338;2022-07-12T07:58:58;2.17;;;0.73;;
47635;SDS011;33364;50.766;15.338;2022-07-12T08:01:24;4.05;;;0.90;;
47635;SDS011;33364;50.766;15.338;2022-07-12T08:04:08;1.17;;;0.82;;
47635;SDS011;33364;50.766;15.338;2022-07-12T08:06:35;3.38;;;1.00;;
47635;SDS011;33364;50.766;15.338;2022-07-12T08:09:01;2.47;;;1.10;;
47635;SDS011;33364;50.766;15.338;2022-07-12T08:11:26;2.30;;;1.05;;
47635;SDS011;33364;50.766;15.338;2022-07-12T08:13:52;1.88;;;1.00;;
47635;SDS011;33364;50.766;15.338;2022-07-12T08:16:17;2.63;;;0.90;;
47635;SDS011;33364;50.766;15.338;2022-07-12T08:18:43;1.52;;;1.00;;
47635;SDS011;33364;50.766;15.338;2022-07-12T08:21:08;3.30;;;1.10;;
47635;SDS011;33364;50.766;15.338;2022-07-12T08:23:34;5.43;;;1.10;;
47635;SDS011;33364;50.766;15.338;2022-07-12T08:25:59;1.95;;;0.85;;
47635;SDS011;33364;50.766;15.338;2022-07-12T08:28:25;3.85;;;1.00;;
47635;SDS011;33364;50.766;15.338;2022-07-12T08:30:50;1.85;;;0.80;;
47635;SDS011;33364;50.766;15.338;2022-07-12T08:33:16;2.35;;;0.80;;
47635;SDS011;33364;50.766;15.338;2022-07-12T08:35:42;2.22;;;0.82;;
47635;SDS011;33364;50.766;15.338;2022-07-12T08:38:08;3.72;;;1.00;;
47635;SDS011;33364;50.766;15.338;2022-07-12T08:40:35;3.63;;;1.17;;
47635;SDS011;33364;50.766;15.338;2022-07-12T08:43:01;1.38;;;1.00;;
47635;SDS011;33364;50.766;15.338;2022-07-12T08:45:27;4.38;;;1.42;;
47635;SDS011;33364;50.766;15.338;2022-07-12T08:47:53;4.20;;;1.23;;
47635;SDS011;33364;50.766;15.338;2022-07-12T08:50:19;4.00;;;1.30;;
47635;SDS011;33364;50.766;15.338;2022-07-12T08:52:47;3.75;;;1.30;;
47635;SDS011;33364;50.766;15.338;2022-07-12T08:55:33;2.10;;;0.80;;
47635;SDS011;33364;50.766;15.338;2022-07-12T08:58:00;6.15;;;1.42;;
47635;SDS011;33364;50.766;15.338;2022-07-12T09:00:29;2.15;;;0.70;;
47635;SDS011;33364;50.766;15.338;2022-07-12T09:02:57;1.58;;;0.55;;
47635;SDS011;33364;50.766;15.338;2022-07-12T09:05:25;1.10;;;0.80;;
47635;SDS011;33364;50.766;15.338;2022-07-12T09:08:02;1.67;;;0.60;;
47635;SDS011;33364;50.766;15.338;2022-07-12T09:10:28;0.90;;;0.80;;
47635;SDS011;33364;50.766;15.338;2022-07-12T09:12:54;4.20;;;0.65;;
47635;SDS011;33364;50.766;15.338;2022-07-12T09:15:21;1.35;;;0.80;;
47635;SDS011;33364;50.766;15.338;2022-07-12T09:17:54;6.68;;;0.70;;
47635;SDS011;33364;50.766;15.338;2022-07-12T09:20:34;2.75;;;0.60;;
47635;SDS011;33364;50.766;15.338;2022-07-12T09:23:05;1.50;;;0.47;;
47635;SDS011;33364;50.766;15.338;2022-07-12T09:25:33;0.45;;;0.40;;
47635;SDS011;33364;50.766;15.338;2022-07-12T09:27:59;4.38;;;0.60;;
47635;SDS011;33364;50.766;15.338;2022-07-12T09:30:28;1.05;;;0.60;;
47635;SDS011;33364;50.766;15.338;2022-07-12T09:32:58;0.80;;;0.57;;
47635;SDS011;33364;50.766;15.338;2022-07-12T09:35:57;1.25;;;0.50;;
47635;SDS011;33364;50.766;15.338;2022-07-12T09:38:53;4.90;;;0.60;;
47635;SDS011;33364;50.766;15.338;2022-07-12T09:41:22;1.67;;;0.60;;
47635;SDS011;33364;50.766;15.338;2022-07-12T09:43:49;1.05;;;0.40;;
47635;SDS011;33364;50.766;15.338;2022-07-12T09:46:15;3.78;;;0.70;;
47635;SDS011;33364;50.766;15.338;2022-07-12T09:48:42;0.70;;;0.52;;
47635;SDS011;33364;50.766;15.338;2022-07-12T09:51:08;0.70;;;0.60;;
47635;SDS011;33364;50.766;15.338;2022-07-12T09:53:38;1.52;;;0.63;;
47635;SDS011;33364;50.766;15.338;2022-07-12T09:56:09;2.63;;;0.88;;
47635;SDS011;33364;50.766;15.338;2022-07-12T09:58:38;1.15;;;0.50;;
47635;SDS011;33364;50.766;15.338;2022-07-12T10:01:06;3.72;;;0.60;;
47635;SDS011;33364;50.766;15.338;2022-07-12T10:03:34;1.98;;;0.82;;
47635;SDS011;33364;50.766;15.338;2022-07-12T10:06:02;3.88;;;0.70;;
47635;SDS011;33364;50.766;15.338;2022-07-12T10:08:28;4.70;;;0.80;;
47635;SDS011;33364;50.766;15.338;2022-07-12T10:10:55;2.10;;;0.65;;
47635;SDS011;33364;50.766;15.338;2022-07-12T10:13:21;4.15;;;1.58;;
47635;SDS011;33364;50.766;15.338;2022-07-12T10:15:47;1.40;;;0.60;;
47635;SDS011;33364;50.766;15.338;2022-07-12T10:18:15;3.45;;;0.77;;
47635;SDS011;33364;50.766;15.338;2022-07-12T10:20:42;1.38;;;0.60;;
47635;SDS011;33364;50.766;15.338;2022-07-12T10:26:45;0.90;;;0.63;;
47635;SDS011;33364;50.766;15.338;2022-07-12T10:31:38;2.60;;;1.40;;
47635;SDS011;33364;50.766;15.338;2022-07-12T10:34:19;0.80;;;0.50;;
47635;SDS011;33364;50.766;15.338;2022-07-12T10:39:22;0.98;;;0.60;;
47635;SDS011;33364;50.766;15.338;2022-07-12T10:44:45;1.38;;;0.70;;
47635;SDS011;33364;50.766;15.338;2022-07-12T10:47:12;1.73;;;0.70;;
47635;SDS011;33364;50.766;15.338;2022-07-12T10:49:46;1.70;;;0.70;;
47635;SDS011;33364;50.766;15.338;2022-07-12T10:52:16;2.78;;;1.30;;
47635;SDS011;33364;50.766;15.338;2022-07-12T10:54:50;2.60;;;0.80;;
47635;SDS011;33364;50.766;15.338;2022-07-12T10:57:42;2.85;;;0.80;;
47635;SDS011;33364;50.766;15.338;2022-07-12T11:00:10;1.90;;;1.00;;
47635;SDS011;33364;50.766;15.338;2022-07-12T11:02:37;1.17;;;0.60;;
47635;SDS011;33364;50.766;15.338;2022-07-12T11:05:02;2.65;;;1.15;;
47635;SDS011;33364;50.766;15.338;2022-07-12T11:07:28;0.82;;;0.60;;
47635;SDS011;33364;50.766;15.338;2022-07-12T11:09:54;1.45;;;0.70;;
47635;SDS011;33364;50.766;15.338;2022-07-12T11:12:21;2.53;;;0.63;;
47635;SDS011;33364;50.766;15.338;2022-07-12T11:14:54;1.10;;;0.60;;
47635;SDS011;33364;50.766;15.338;2022-07-12T11:17:26;1.25;;;0.50;;
47635;SDS011;33364;50.766;15.338;2022-07-12T11:20:02;2.15;;;0.50;;
47635;SDS011;33364;50.766;15.338;2022-07-12T11:22:30;1.10;;;0.60;;
47635;SDS011;33364;50.766;15.338;2022-07-12T11:24:56;3.72;;;0.45;;
47635;SDS011;33364;50.766;15.338;2022-07-12T11:27:22;2.33;;;0.65;;
47635;SDS011;33364;50.766;15.338;2022-07-12T11:30:06;1.95;;;0.60;;
47635;SDS011;33364;50.766;15.338;2022-07-12T11:32:40;6.32;;;1.73;;
47635;SDS011;33364;50.766;15.338;2022-07-12T11:35:18;2.33;;;1.70;;
47635;SDS011;33364;50.766;15.338;2022-07-12T11:37:48;2.40;;;1.35;;
47635;SDS011;33364;50.766;15.338;2022-07-12T11:40:25;2.00;;;0.88;;
47635;SDS011;33364;50.766;15.338;2022-07-12T11:42:53;7.10;;;0.77;;
47635;SDS011;33364;50.766;15.338;2022-07-12T11:45:24;4.60;;;1.08;;
47635;SDS011;33364;50.766;15.338;2022-07-12T11:47:51;0.85;;;0.50;;
47635;SDS011;33364;50.766;15.338;2022-07-12T11:50:18;3.25;;;1.70;;
47635;SDS011;33364;50.766;15.338;2022-07-12T11:52:45;1.58;;;0.70;;
47635;SDS011;33364;50.766;15.338;2022-07-12T11:55:11;1.20;;;0.80;;
47635;SDS011;33364;50.766;15.338;2022-07-12T11:57:36;0.80;;;0.60;;
47635;SDS011;33364;50.766;15.338;2022-07-12T12:00:21;1.38;;;0.60;;
47635;SDS011;33364;50.766;15.338;2022-07-12T12:02:54;0.95;;;0.60;;
47635;SDS011;33364;50.766;15.338;2022-07-12T12:05:20;4.18;;;0.70;;
47635;SDS011;33364;50.766;15.338;2022-07-12T12:07:46;1.55;;;0.70;;
47635;SDS011;33364;50.766;15.338;2022-07-12T12:10:13;4.10;;;1.17;;
47635;SDS011;33364;50.766;15.338;2022-07-12T12:12:47;2.47;;;0.70;;
47635;SDS011;33364;50.766;15.338;2022-07-12T12:15:17;1.42;;;0.77;;
47635;SDS011;33364;50.766;15.338;2022-07-12T12:17:55;2.97;;;0.82;;
47635;SDS011;33364;50.766;15.338;2022-07-12T12:20:26;2.75;;;0.80;;
47635;SDS011;33364;50.766;15.338;2022-07-12T12:22:54;1.42;;;0.70;;
47635;SDS011;33364;50.766;15.338;2022-07-12T12:25:21;3.03;;;0.82;;
47635;SDS011;33364;50.766;15.338;2022-07-12T12:27:48;7.50;;;0.90;;
47635;SDS011;33364;50.766;15.338;2022-07-12T12:30:18;5.35;;;1.60;;
47635;SDS011;33364;50.766;15.338;2022-07-12T12:32:48;2.40;;;1.00;;
47635;SDS011;33364;50.766;15.338;2022-07-12T12:35:21;1.85;;;0.80;;
47635;SDS011;33364;50.766;15.338;2022-07-12T12:37:48;4.00;;;0.60;;
47635;SDS011;33364;50.766;15.338;2022-07-12T12:40:18;2.22;;;0.55;;
47635;SDS011;33364;50.766;15.338;2022-07-12T12:42:45;3.47;;;0.77;;
47635;SDS011;33364;50.766;15.338;2022-07-12T12:45:21;1.00;;;0.50;;
47635;SDS011;33364;50.766;15.338;2022-07-12T12:47:51;2.20;;;0.70;;
47635;SDS011;33364;50.766;15.338;2022-07-12T12:50:39;1.65;;;0.40;;
47635;SDS011;33364;50.766;15.338;2022-07-12T12:53:06;1.50;;;0.82;;
47635;SDS011;33364;50.766;15.338;2022-07-12T12:55:36;0.82;;;0.70;;
47635;SDS011;33364;50.766;15.338;2022-07-12T12:58:01;1.80;;;0.70;;
47635;SDS011;33364;50.766;15.338;2022-07-12T13:00:28;1.50;;;0.60;;
47635;SDS011;33364;50.766;15.338;2022-07-12T13:02:54;0.88;;;0.52;;
47635;SDS011;33364;50.766;15.338;2022-07-12T13:05:20;1.42;;;1.20;;
47635;SDS011;33364;50.766;15.338;2022-07-12T13:07:45;1.83;;;1.10;;
47635;SDS011;33364;50.766;15.338;2022-07-12T13:10:11;5.90;;;1.10;;
47635;SDS011;33364;50.766;15.338;2022-07-12T13:12:36;2.17;;;0.70;;
47635;SDS011;33364;50.766;15.338;2022-07-12T13:15:02;3.20;;;0.52;;
47635;SDS011;33364;50.766;15.338;2022-07-12T13:17:28;1.48;;;0.70;;
47635;SDS011;33364;50.766;15.338;2022-07-12T13:19:54;1.05;;;0.50;;
47635;SDS011;33364;50.766;15.338;2022-07-12T13:22:20;1.20;;;0.60;;
47635;SDS011;33364;50.766;15.338;2022-07-12T13:24:45;3.13;;;0.50;;
47635;SDS011;33364;50.766;15.338;2022-07-12T13:27:11;0.55;;;0.50;;
47635;SDS011;33364;50.766;15.338;2022-07-12T13:29:36;1.13;;;0.40;;
47635;SDS011;33364;50.766;15.338;2022-07-12T13:32:02;1.02;;;0.43;;
47635;SDS011;33364;50.766;15.338;2022-07-12T13:34:28;2.75;;;0.45;;
47635;SDS011;33364;50.766;15.338;2022-07-12T13:36:53;2.05;;;0.50;;
47635;SDS011;33364;50.766;15.338;2022-07-12T13:39:19;1.40;;;0.50;;
47635;SDS011;33364;50.766;15.338;2022-07-12T13:42:03;3.08;;;0.63;;
47635;SDS011;33364;50.766;15.338;2022-07-12T13:44:29;0.75;;;0.50;;
47635;SDS011;33364;50.766;15.338;2022-07-12T13:46:55;5.18;;;0.90;;
47635;SDS011;33364;50.766;15.338;2022-07-12T13:49:21;1.20;;;0.60;;
47635;SDS011;33364;50.766;15.338;2022-07-12T13:51:47;0.52;;;0.40;;
47635;SDS011;33364;50.766;15.338;2022-07-12T13:54:13;0.50;;;0.50;;
47635;SDS011;33364;50.766;15.338;2022-07-12T13:56:38;2.83;;;0.80;;
47635;SDS011;33364;50.766;15.338;2022-07-12T13:59:05;1.15;;;0.45;;
47635;SDS011;33364;50.766;15.338;2022-07-12T14:01:31;0.40;;;0.40;;
47635;SDS011;33364;50.766;15.338;2022-07-12T14:03:57;0.40;;;0.40;;
47635;SDS011;33364;50.766;15.338;2022-07-12T14:06:22;1.38;;;0.47;;
47635;SDS011;33364;50.766;15.338;2022-07-12T14:08:48;0.88;;;0.50;;
47635;SDS011;33364;50.766;15.338;2022-07-12T14:11:17;3.10;;;0.50;;
47635;SDS011;33364;50.766;15.338;2022-07-12T14:13:43;0.85;;;0.60;;
47635;SDS011;33364;50.766;15.338;2022-07-12T14:16:08;2.08;;;0.50;;
47635;SDS011;33364;50.766;15.338;2022-07-12T14:18:34;3.33;;;0.60;;
47635;SDS011;33364;50.766;15.338;2022-07-12T14:20:59;0.60;;;0.50;;
47635;SDS011;33364;50.766;15.338;2022-07-12T14:23:24;1.27;;;0.50;;
47635;SDS011;33364;50.766;15.338;2022-07-12T14:25:50;1.98;;;0.55;;
47635;SDS011;33364;50.766;15.338;2022-07-12T14:28:15;1.48;;;0.50;;
47635;SDS011;33364;50.766;15.338;2022-07-12T14:30:41;2.55;;;0.60;;
47635;SDS011;33364;50.766;15.338;2022-07-12T14:33:07;1.33;;;0.77;;
47635;SDS011;33364;50.766;15.338;2022-07-12T14:35:32;2.83;;;0.57;;
47635;SDS011;33364;50.766;15.338;2022-07-12T14:37:57;0.60;;;0.60;;
47635;SDS011;33364;50.766;15.338;2022-07-12T14:40:23;0.95;;;0.40;;
47635;SDS011;33364;50.766;15.338;2022-07-12T14:42:48;2.50;;;0.50;;
47635;SDS011;33364;50.766;15.338;2022-07-12T14:45:14;1.13;;;0.57;;